createdAt,value
2022-08-05T00:01:36.439Z,57.82
2022-08-05T00:04:18.841Z,59.88
2022-08-05T00:06:51.638Z,60.16
2022-08-05T00:09:21.327Z,59.95
2022-08-05T00:11:56.129Z,67.62
2022-08-05T00:14:31.437Z,66.35
2022-08-05T00:17:02.988Z,64.63
2022-08-05T00:19:33.411Z,64.74
2022-08-05T00:22:11.357Z,69.79
2022-08-05T00:24:42.573Z,69.94
2022-08-05T00:27:14.136Z,70.88
2022-08-05T00:29:46.071Z,74.91
2022-08-05T00:32:16.323Z,72.09
2022-08-05T00:35:05.102Z,69.63
2022-08-05T00:37:53.362Z,68.81
2022-08-05T00:40:27.220Z,68.53
2022-08-05T00:42:59.582Z,68.52
2022-08-05T00:45:42.988Z,67.83
2022-08-05T00:48:15.988Z,67.07
2022-08-05T00:50:47.307Z,65.80
2022-08-05T00:54:00.765Z,65.17
2022-08-05T00:56:07.903Z,63.54
2022-08-05T00:58:37.468Z,62.76
2022-08-05T01:01:08.625Z,64.65
2022-08-05T01:03:40.050Z,64.38
2022-08-05T01:06:14.164Z,66.10
2022-08-05T01:08:47.146Z,65.89
2022-08-05T01:11:22.258Z,66.67
2022-08-05T01:14:04.041Z,66.79
2022-08-05T01:16:49.150Z,67.78
2022-08-05T01:20:02.149Z,67.76
2022-08-05T01:22:34.522Z,68.10
2022-08-05T01:25:39.632Z,69.06
2022-08-05T01:28:25.400Z,68.53
2022-08-05T01:30:58.567Z,68.42
2022-08-05T01:33:35.566Z,67.80
2022-08-05T01:36:13.126Z,67.36
2022-08-05T01:38:49.755Z,67.01
2022-08-05T01:41:25.744Z,67.35
2022-08-05T01:43:57.674Z,68.80
2022-08-05T01:46:42.530Z,68.78
2022-08-05T01:49:25.075Z,68.41
2022-08-05T01:51:58.753Z,69.39
2022-08-05T01:54:32.915Z,69.20
2022-08-05T01:58:29.946Z,68.93
2022-08-05T01:59:59.662Z,69.66
2022-08-05T02:02:30.899Z,68.09
2022-08-05T02:05:06.270Z,68.99
2022-08-05T02:07:43.164Z,68.63
2022-08-05T02:10:34.846Z,69.13
2022-08-05T02:13:16.064Z,68.61
2022-08-05T02:15:51.009Z,69.45
2022-08-05T02:18:32.236Z,69.50
2022-08-05T02:21:13.245Z,73.29
2022-08-05T02:23:47.336Z,72.53
2022-08-05T02:26:39.411Z,73.23
2022-08-05T02:29:26.296Z,72.04
2022-08-05T02:32:24.064Z,71.58
2022-08-05T02:35:01.979Z,72.21
2022-08-05T02:37:47.922Z,72.19
2022-08-05T02:40:25.911Z,72.58
2022-08-05T02:42:56.867Z,73.58
2022-08-05T02:45:52.238Z,72.55
2022-08-05T02:48:20.863Z,73.87
2022-08-05T02:51:01.229Z,73.55
2022-08-05T02:53:39.173Z,74.00
2022-08-05T02:56:16.111Z,74.08
2022-08-05T02:58:51.160Z,73.69
2022-08-05T03:01:23.382Z,72.77
2022-08-05T03:04:02.139Z,72.42
2022-08-05T03:06:54.484Z,73.02
2022-08-05T03:09:36.310Z,73.72
2022-08-05T03:12:07.992Z,72.51
2022-08-05T03:14:45.796Z,71.93
2022-08-05T03:17:15.208Z,72.20
2022-08-05T03:19:45.867Z,74.47
2022-08-05T03:22:18.999Z,73.70
2022-08-05T03:25:02.278Z,74.21
2022-08-05T03:27:59.179Z,78.65
2022-08-05T03:30:34.163Z,79.33
2022-08-05T03:33:05.742Z,81.17
2022-08-05T03:35:41.101Z,81.67
2022-08-05T03:38:14.706Z,79.84
2022-08-05T03:40:45.058Z,79.56
2022-08-05T03:44:09.467Z,77.45
2022-08-05T03:46:08.306Z,76.73
2022-08-05T03:48:37.407Z,76.93
2022-08-05T03:52:48.929Z,78.43
2022-08-05T03:55:50.796Z,78.73
2022-08-05T03:57:00.724Z,78.06
2022-08-05T03:59:47.697Z,77.14
2022-08-05T04:02:38.562Z,79.05
2022-08-05T04:05:11.034Z,81.19
2022-08-05T04:07:58.161Z,83.68
2022-08-05T04:10:31.977Z,79.02
2022-08-05T04:13:07.593Z,77.24
2022-08-05T04:15:36.923Z,76.09
2022-08-05T04:18:09.309Z,75.79
2022-08-05T04:20:41.286Z,75.91
2022-08-05T04:23:16.071Z,74.36
2022-08-05T04:25:58.047Z,70.79
2022-08-05T04:28:30.815Z,71.75
2022-08-05T04:31:01.594Z,74.04
2022-08-05T04:34:17.734Z,69.76
2022-08-05T04:36:44.777Z,69.00
2022-08-05T04:39:16.491Z,71.80
2022-08-05T04:41:45.889Z,75.08
2022-08-05T04:44:21.400Z,72.23
2022-08-05T04:46:58.506Z,74.10
2022-08-05T04:50:01.402Z,71.36
2022-08-05T04:52:17.048Z,73.57
2022-08-05T04:54:49.355Z,71.79
2022-08-05T04:57:18.540Z,70.62
2022-08-05T04:59:48.090Z,69.66
2022-08-05T05:02:36.541Z,67.96
2022-08-05T05:05:26.150Z,65.59
2022-08-05T05:07:56.522Z,67.21
2022-08-05T05:10:34.798Z,65.11
2022-08-05T05:13:04.227Z,68.98
2022-08-05T05:15:56.866Z,66.76
2022-08-05T05:18:28.317Z,63.83
2022-08-05T05:21:00.391Z,64.29
2022-08-05T05:24:02.015Z,60.71
2022-08-05T05:26:19.662Z,57.37
2022-08-05T05:28:57.807Z,57.87
2022-08-05T05:31:26.797Z,57.73
2022-08-05T05:34:02.194Z,56.90
2022-08-05T05:36:32.574Z,54.43
2022-08-05T05:39:09.346Z,53.23
2022-08-05T05:41:41.933Z,51.88
2022-08-05T05:44:26.970Z,50.63
2022-08-05T05:47:04.383Z,48.83
2022-08-05T05:49:33.775Z,49.91
2022-08-05T05:52:05.694Z,50.68
2022-08-05T05:54:49.950Z,52.72
2022-08-05T05:57:21.638Z,53.94
2022-08-05T05:59:50.710Z,52.89
2022-08-05T06:02:32.337Z,51.95
2022-08-05T06:05:10.211Z,52.98
2022-08-05T06:07:41.983Z,52.85
2022-08-05T06:10:12.599Z,51.10
2022-08-05T06:12:43.684Z,49.76
2022-08-05T06:15:24.125Z,48.88
2022-08-05T06:17:54.545Z,47.10
2022-08-05T06:20:23.815Z,47.26
2022-08-05T06:22:52.657Z,45.50
2022-08-05T06:25:24.653Z,45.09
2022-08-05T06:28:20.662Z,45.48
2022-08-05T06:30:49.996Z,43.03
2022-08-05T06:33:19.349Z,44.01
2022-08-05T06:36:03.626Z,41.71
2022-08-05T06:38:37.264Z,41.83
2022-08-05T06:41:07.769Z,39.69
2022-08-05T06:43:58.328Z,39.23
2022-08-05T06:46:30.307Z,39.68
2022-08-05T06:49:01.068Z,40.51
2022-08-05T06:51:31.470Z,40.58
2022-08-05T06:54:01.855Z,39.78
2022-08-05T06:56:34.245Z,39.10
2022-08-05T06:59:09.554Z,36.86
2022-08-05T07:01:42.367Z,37.32
2022-08-05T07:04:13.935Z,37.54
2022-08-05T07:06:43.318Z,35.90
2022-08-05T07:09:12.309Z,35.24
2022-08-05T07:11:46.677Z,36.09
2022-08-05T07:14:39.477Z,35.24
2022-08-05T07:18:00.226Z,35.49
2022-08-05T07:20:31.427Z,34.11
2022-08-05T07:22:46.137Z,32.36
2022-08-05T07:25:53.866Z,32.43
2022-08-05T07:28:11.171Z,33.98
2022-08-05T07:30:43.261Z,33.21
2022-08-05T07:33:17.029Z,33.38
2022-08-05T07:36:03.518Z,33.78
2022-08-05T07:38:43.280Z,36.20
2022-08-05T07:42:13.175Z,32.77
2022-08-05T07:44:19.197Z,32.67
2022-08-05T07:46:50.517Z,31.08
2022-08-05T07:49:20.585Z,31.89
2022-08-05T07:51:54.344Z,31.82
2022-08-05T07:54:30.629Z,32.10
2022-08-05T07:57:16.905Z,31.26
2022-08-05T07:59:51.940Z,30.79
2022-08-05T08:02:30.732Z,30.38
2022-08-05T08:05:02.178Z,30.08
2022-08-05T08:07:39.588Z,30.49
2022-08-05T08:10:22.438Z,30.19
2022-08-05T08:12:51.541Z,31.62
2022-08-05T08:15:37.141Z,30.80
2022-08-05T08:18:14.348Z,31.64
2022-08-05T08:21:01.878Z,31.13
2022-08-05T08:24:01.768Z,29.77
2022-08-05T08:26:29.381Z,29.25
2022-08-05T08:29:21.636Z,28.90
2022-08-05T08:31:50.446Z,29.11
2022-08-05T08:34:30.148Z,28.29
2022-08-05T08:37:04.813Z,27.54
2022-08-05T08:39:37.635Z,25.37
2022-08-05T08:42:38.303Z,26.82
2022-08-05T08:45:20.620Z,26.58
2022-08-05T08:48:11.378Z,27.01
2022-08-05T08:51:03.549Z,27.44
2022-08-05T08:53:44.385Z,27.30
2022-08-05T08:56:14.414Z,25.57
2022-08-05T08:58:48.540Z,24.69
2022-08-05T09:01:18.812Z,24.42
2022-08-05T09:03:54.245Z,23.89
2022-08-05T09:06:30.523Z,24.90
2022-08-05T09:09:01.765Z,24.17
2022-08-05T09:11:52.007Z,24.15
2022-08-05T09:14:57.714Z,21.94
2022-08-05T09:17:40.776Z,21.72
2022-08-05T09:20:05.049Z,21.61
2022-08-05T09:23:09.558Z,22.27
2022-08-05T09:26:02.045Z,22.58
2022-08-05T09:28:32.500Z,23.22
2022-08-05T09:31:22.299Z,24.42
2022-08-05T09:33:56.679Z,24.98
2022-08-05T09:36:27.354Z,23.45
2022-08-05T09:38:59.446Z,22.45
2022-08-05T09:41:33.145Z,21.80
2022-08-05T09:44:08.057Z,21.24
2022-08-05T09:46:40.308Z,22.48
2022-08-05T09:49:54.744Z,23.86
2022-08-05T09:52:26.280Z,24.64
2022-08-05T09:54:59.381Z,24.32
2022-08-05T09:57:39.649Z,24.91
2022-08-05T10:00:15.195Z,23.40
2022-08-05T10:02:46.048Z,23.31
2022-08-05T10:05:18.222Z,24.46
2022-08-05T10:08:10.831Z,23.29
2022-08-05T10:10:50.343Z,22.45
2022-08-05T10:13:47.564Z,19.91
2022-08-05T10:16:33.769Z,20.02
2022-08-05T10:19:08.590Z,19.92
2022-08-05T10:21:40.495Z,19.48
2022-08-05T10:24:13.526Z,20.36
2022-08-05T10:26:48.970Z,20.03
2022-08-05T10:29:24.179Z,21.00
2022-08-05T10:32:55.177Z,22.22
2022-08-05T10:35:01.499Z,22.76
2022-08-05T10:37:39.996Z,23.02
2022-08-05T10:40:28.215Z,23.51
2022-08-05T10:43:06.212Z,22.94
2022-08-05T10:45:42.137Z,22.61
2022-08-05T10:48:36.099Z,22.36
2022-08-05T10:51:23.037Z,21.59
2022-08-05T10:54:01.646Z,20.99
2022-08-05T10:56:46.716Z,21.92
2022-08-05T11:00:02.260Z,20.69
2022-08-05T11:02:14.463Z,20.16
2022-08-05T11:05:00.953Z,20.40
2022-08-05T11:07:32.761Z,19.66
2022-08-05T11:10:09.526Z,19.67
2022-08-05T11:12:50.439Z,19.56
2022-08-05T11:15:59.338Z,19.45
2022-08-05T11:18:30.251Z,20.00
2022-08-05T11:21:02.980Z,20.21
2022-08-05T11:24:05.020Z,19.20
2022-08-05T11:26:34.021Z,19.41
2022-08-05T11:29:12.962Z,18.98
2022-08-05T11:31:54.260Z,18.97
2022-08-05T11:34:52.063Z,18.96
2022-08-05T11:38:29.935Z,20.10
2022-08-05T11:41:15.429Z,19.36
2022-08-05T11:44:04.842Z,18.49
2022-08-05T11:47:10.274Z,19.12
2022-08-05T11:49:29.609Z,18.94
2022-08-05T11:52:08.317Z,18.83
2022-08-05T11:54:40.699Z,19.57
2022-08-05T11:57:24.898Z,18.88
2022-08-05T11:59:55.489Z,18.23
2022-08-05T12:02:32.057Z,18.36
2022-08-05T12:05:06.745Z,17.34
2022-08-05T12:08:08.337Z,18.97
2022-08-05T12:10:43.037Z,18.91
2022-08-05T12:13:27.946Z,18.93
2022-08-05T12:16:14.497Z,18.30
2022-08-05T12:18:49.477Z,18.91
2022-08-05T12:21:29.969Z,19.33
2022-08-05T12:24:04.982Z,19.07
2022-08-05T12:26:37.028Z,18.54
2022-08-05T12:29:09.356Z,17.58
2022-08-05T12:31:50.128Z,17.63
2022-08-05T12:34:25.721Z,18.79
2022-08-05T12:36:58.147Z,18.13
2022-08-05T12:39:37.482Z,18.19
2022-08-05T12:42:14.270Z,17.70
2022-08-05T12:44:45.913Z,17.31
2022-08-05T12:47:30.491Z,17.02
2022-08-05T12:50:03.200Z,17.48
2022-08-05T12:52:39.315Z,18.07
2022-08-05T12:55:22.371Z,17.44
2022-08-05T12:58:50.632Z,17.51
2022-08-05T13:02:01.453Z,17.93
2022-08-05T13:03:42.218Z,17.62
2022-08-05T13:06:18.190Z,18.02
2022-08-05T13:08:52.386Z,18.87
2022-08-05T13:11:25.553Z,19.39
2022-08-05T13:14:36.619Z,20.13
2022-08-05T13:17:11.140Z,20.29
2022-08-05T13:19:52.196Z,20.91
2022-08-05T13:22:27.992Z,21.81
2022-08-05T13:25:05.838Z,21.19
2022-08-05T13:27:39.286Z,20.67
2022-08-05T13:30:32.978Z,20.08
2022-08-05T13:33:01.446Z,20.25
2022-08-05T13:35:50.314Z,20.19
2022-08-05T13:38:30.878Z,19.36
2022-08-05T13:41:06.771Z,19.46
2022-08-05T13:43:45.446Z,19.71
2022-08-05T13:47:01.921Z,19.62
2022-08-05T13:49:13.772Z,19.35
2022-08-05T13:51:46.729Z,19.10
2022-08-05T13:54:21.058Z,18.85
2022-08-05T13:56:55.585Z,19.03
2022-08-05T13:59:27.208Z,19.12
2022-08-05T14:02:00.622Z,18.62
2022-08-05T14:04:51.137Z,19.03
2022-08-05T14:07:55.458Z,19.17
2022-08-05T14:10:13.042Z,18.91
2022-08-05T14:12:48.712Z,19.10
2022-08-05T14:16:05.641Z,19.01
2022-08-05T14:18:14.916Z,19.12
2022-08-05T14:20:47.968Z,18.92
2022-08-05T14:23:19.210Z,19.38
2022-08-05T14:25:58.180Z,19.75
2022-08-05T14:28:30.508Z,21.15
2022-08-05T14:31:01.059Z,21.18
2022-08-05T14:33:56.584Z,21.59
2022-08-05T14:36:21.657Z,21.32
2022-08-05T14:38:51.629Z,20.88
2022-08-05T14:41:21.053Z,20.50
2022-08-05T14:44:00.145Z,20.51
2022-08-05T14:46:34.970Z,20.11
2022-08-05T14:49:07.754Z,19.60
2022-08-05T14:51:38.151Z,20.19
2022-08-05T14:54:27.664Z,19.45
2022-08-05T14:56:57.125Z,20.23
2022-08-05T14:59:35.814Z,20.84
2022-08-05T15:02:15.707Z,20.37
2022-08-05T15:04:47.671Z,20.65
2022-08-05T15:08:06.014Z,20.28
2022-08-05T15:10:09.777Z,20.45
2022-08-05T15:12:59.648Z,19.77
2022-08-05T15:15:54.420Z,20.83
2022-08-05T15:18:18.821Z,20.83
2022-08-05T15:20:47.722Z,21.24
2022-08-05T15:23:16.812Z,20.46
2022-08-05T15:25:53.332Z,20.70
2022-08-05T15:28:27.809Z,20.33
2022-08-05T15:30:58.470Z,20.28
2022-08-05T15:34:18.435Z,20.52
2022-08-05T15:36:24.466Z,20.29
2022-08-05T15:41:03.739Z,20.51
2022-08-05T15:41:56.143Z,20.28
2022-08-05T15:44:30.423Z,20.04
2022-08-05T15:47:03.722Z,19.69
2022-08-05T15:49:48.203Z,19.73
2022-08-05T15:52:53.911Z,21.08
2022-08-05T15:55:16.234Z,20.06
2022-08-05T15:57:46.050Z,21.28
2022-08-05T16:00:28.706Z,20.90
2022-08-05T16:03:09.484Z,21.34
2022-08-05T16:05:38.945Z,20.67
2022-08-05T16:08:08.021Z,20.57
2022-08-05T16:10:37.088Z,20.71
2022-08-05T16:13:06.172Z,20.81
2022-08-05T16:15:35.075Z,21.22
2022-08-05T16:18:04.145Z,21.47
2022-08-05T16:20:39.466Z,21.49
2022-08-05T16:23:09.358Z,22.13
2022-08-05T16:25:38.463Z,21.59
2022-08-05T16:28:09.561Z,22.29
2022-08-05T16:30:39.285Z,21.80
2022-08-05T16:33:10.630Z,22.02
2022-08-05T16:35:42.225Z,22.69
2022-08-05T16:38:23.860Z,23.28
2022-08-05T16:41:00.059Z,23.32
2022-08-05T16:43:31.568Z,23.40
2022-08-05T16:46:07.556Z,23.29
2022-08-05T16:48:51.421Z,23.30
2022-08-05T16:51:21.695Z,23.58
2022-08-05T16:54:02.754Z,23.85
2022-08-05T16:56:36.538Z,24.04
2022-08-05T16:59:11.909Z,24.29
2022-08-05T17:01:53.038Z,24.59
2022-08-05T17:04:27.486Z,25.34
2022-08-05T17:07:01.062Z,25.47
2022-08-05T17:09:57.708Z,25.32
2022-08-05T17:12:22.747Z,25.47
2022-08-05T17:15:10.309Z,25.90
2022-08-05T17:17:44.784Z,25.86
2022-08-05T17:20:14.811Z,25.83
2022-08-05T17:22:45.503Z,26.12
2022-08-05T17:25:39.294Z,26.72
2022-08-05T17:28:09.941Z,27.35
2022-08-05T17:30:50.297Z,27.10
2022-08-05T17:33:22.074Z,27.81
2022-08-05T17:36:08.623Z,28.14
2022-08-05T17:38:42.730Z,27.70
2022-08-05T17:42:16.619Z,27.76
2022-08-05T17:44:00.752Z,27.89
2022-08-05T17:46:32.368Z,28.40
2022-08-05T17:49:01.222Z,28.63
2022-08-05T17:51:40.584Z,28.67
2022-08-05T17:54:11.351Z,28.60
2022-08-05T17:56:43.158Z,28.90
2022-08-05T17:59:13.809Z,28.96
2022-08-05T18:01:50.564Z,29.15
2022-08-05T18:04:21.047Z,29.20
2022-08-05T18:06:50.472Z,28.92
2022-08-05T18:09:20.794Z,29.36
2022-08-05T18:11:52.594Z,29.73
2022-08-05T18:14:21.675Z,30.07
2022-08-05T18:16:52.479Z,29.59
2022-08-05T18:19:22.649Z,29.88
2022-08-05T18:22:07.120Z,29.83
2022-08-05T18:24:39.414Z,30.30
2022-08-05T18:27:18.890Z,30.90
2022-08-05T18:29:53.604Z,30.48
2022-08-05T18:32:27.978Z,31.14
2022-08-05T18:34:57.752Z,31.14
2022-08-05T18:37:34.742Z,31.14
2022-08-05T18:40:33.699Z,31.29
2022-08-05T18:43:01.266Z,31.50
2022-08-05T18:45:41.722Z,32.11
2022-08-05T18:48:12.119Z,32.07
2022-08-05T18:52:06.505Z,32.04
2022-08-05T18:54:07.495Z,32.92
2022-08-05T18:56:39.266Z,33.26
2022-08-05T18:59:42.101Z,33.22
2022-08-05T19:01:58.453Z,33.52
2022-08-05T19:04:29.410Z,33.03
2022-08-05T19:06:58.581Z,32.98
2022-08-05T19:09:27.549Z,33.10
2022-08-05T19:12:11.408Z,34.06
2022-08-05T19:15:00.685Z,34.05
2022-08-05T19:17:58.275Z,34.33
2022-08-05T19:20:18.844Z,34.54
2022-08-05T19:22:49.738Z,34.74
2022-08-05T19:25:22.179Z,35.70
2022-08-05T19:28:00.775Z,39.24
2022-08-05T19:30:29.841Z,38.95
2022-08-05T19:32:58.652Z,38.39
2022-08-05T19:35:28.294Z,37.60
2022-08-05T19:38:20.335Z,37.99
2022-08-05T19:40:55.625Z,38.88
2022-08-05T19:44:06.191Z,38.63
2022-08-05T19:46:16.630Z,38.63
2022-08-05T19:48:57.967Z,38.04
2022-08-05T19:52:05.131Z,38.68
2022-08-05T19:54:29.443Z,38.16
2022-08-05T19:57:02.123Z,37.97
2022-08-05T19:59:59.564Z,40.28
2022-08-05T20:02:22.158Z,40.73
2022-08-05T20:04:51.981Z,43.11
2022-08-05T20:07:48.346Z,41.85
2022-08-05T20:10:13.468Z,42.51
2022-08-05T20:12:47.597Z,41.48
2022-08-05T20:15:48.876Z,40.92
2022-08-05T20:18:32.623Z,41.25
2022-08-05T20:20:59.998Z,41.55
2022-08-05T20:23:39.398Z,41.35
2022-08-05T20:26:18.973Z,41.23
2022-08-05T20:28:50.720Z,40.59
2022-08-05T20:31:36.924Z,40.90
2022-08-05T20:34:12.356Z,41.15
2022-08-05T20:36:43.418Z,41.79
2022-08-05T20:39:13.557Z,41.96
2022-08-05T20:41:47.662Z,42.04
2022-08-05T20:44:29.625Z,42.16
2022-08-05T20:47:03.455Z,43.02
2022-08-05T20:49:37.825Z,43.84
2022-08-05T20:52:10.466Z,43.28
2022-08-05T20:54:59.504Z,43.31
2022-08-05T20:57:44.021Z,43.89
2022-08-05T21:00:40.661Z,43.59
2022-08-05T21:03:08.311Z,43.47
2022-08-05T21:05:47.620Z,43.24
2022-08-05T21:08:26.542Z,43.72
2022-08-05T21:11:09.190Z,43.82
2022-08-05T21:13:48.229Z,43.88
2022-08-05T21:16:29.569Z,44.03
2022-08-05T21:19:03.445Z,44.30
2022-08-05T21:21:43.689Z,44.39
2022-08-05T21:24:20.036Z,44.51
2022-08-05T21:26:53.638Z,44.66
2022-08-05T21:29:31.843Z,44.37
2022-08-05T21:32:03.219Z,44.49
2022-08-05T21:34:35.609Z,45.94
2022-08-05T21:37:04.912Z,46.29
2022-08-05T21:39:34.822Z,45.91
2022-08-05T21:42:30.626Z,46.31
2022-08-05T21:44:58.784Z,46.62
2022-08-05T21:47:55.062Z,46.36
2022-08-05T21:50:17.945Z,46.85
2022-08-05T21:52:47.389Z,47.02
2022-08-05T21:55:17.260Z,47.28
2022-08-05T21:57:46.442Z,47.15
2022-08-05T22:00:16.204Z,47.17
2022-08-05T22:02:45.725Z,49.52
2022-08-05T22:05:14.894Z,49.55
2022-08-05T22:07:59.483Z,50.00
2022-08-05T22:10:31.549Z,54.03
2022-08-05T22:14:05.001Z,53.43
2022-08-05T22:16:00.285Z,51.87
2022-08-05T22:18:33.748Z,49.84
2022-08-05T22:21:04.714Z,49.47
2022-08-05T22:24:01.794Z,49.44
2022-08-05T22:26:50.557Z,49.96
2022-08-05T22:29:26.659Z,49.90
2022-08-05T22:32:03.278Z,51.32
2022-08-05T22:34:33.211Z,51.18
2022-08-05T22:37:04.681Z,50.50
2022-08-05T22:39:35.402Z,51.39
2022-08-05T22:42:12.585Z,51.81
2022-08-05T22:44:48.238Z,52.26
2022-08-05T22:47:29.970Z,51.55
2022-08-05T22:50:19.029Z,51.72
2022-08-05T22:52:49.783Z,51.51
2022-08-05T22:55:26.033Z,51.85
2022-08-05T22:57:55.641Z,52.11
2022-08-05T23:00:27.049Z,51.00
2022-08-05T23:02:56.469Z,51.16
2022-08-05T23:05:27.320Z,52.77
2022-08-05T23:07:56.167Z,53.33
2022-08-05T23:10:26.501Z,55.28
2022-08-05T23:12:56.047Z,54.72
2022-08-05T23:15:27.124Z,54.69
2022-08-05T23:18:03.414Z,55.09
2022-08-05T23:20:37.483Z,55.95
2022-08-05T23:23:08.302Z,55.39
2022-08-05T23:25:53.203Z,54.24
2022-08-05T23:28:29.089Z,57.56
2022-08-05T23:31:15.729Z,57.76
2022-08-05T23:34:05.071Z,55.73
2022-08-05T23:36:38.722Z,55.58
2022-08-05T23:39:10.425Z,55.66
2022-08-05T23:41:48.694Z,55.54
2022-08-05T23:44:19.782Z,54.53
2022-08-05T23:46:51.567Z,54.17
2022-08-05T23:49:23.768Z,54.39
2022-08-05T23:52:11.865Z,53.63
2022-08-05T23:54:40.980Z,53.59
2022-08-05T23:57:12.014Z,53.29
